Time;durP1;ratioP1;P1;durP2;ratioP2;P2;SDS_P1;SDS_P2;PMS_P1;PMS_P2;Temp;Humidity;BMP_temperature;BMP_pressure;BME280_temperature;BME280_humidity;BME280_pressure;Samples;Min_cycle;Max_cycle;Signal;HPM_P1;HPM_P2
2024/02/24 00:00:15;;;;;;;16.90;13.20;;;;;;;7.37;100.00;100338.73;86969;267;137806;-70
2024/02/24 00:02:17;;;;;;;27.30;14.10;;;;;;;7.37;100.00;100335.38;87098;276;22560;-68
2024/02/24 00:04:19;;;;;;;17.30;13.30;;;;;;;7.37;100.00;100339.80;87025;270;137585;-68
2024/02/24 00:06:21;;;;;;;17.30;13.20;;;;;;;7.37;100.00;100341.58;87516;267;25117;-74
2024/02/24 00:08:23;;;;;;;18.70;13.70;;;;;;;7.34;100.00;100335.58;87146;267;137523;-68
2024/02/24 00:10:25;;;;;;;16.20;12.90;;;;;;;7.34;100.00;100335.91;87084;269;25181;-67
2024/02/24 00:12:27;;;;;;;16.90;13.00;;;;;;;7.36;100.00;100335.39;87022;269;137306;-74
2024/02/24 00:14:29;;;;;;;16.70;14.00;;;;;;;7.36;100.00;100339.19;87218;269;22569;-73
2024/02/24 00:16:31;;;;;;;16.30;12.60;;;;;;;7.35;100.00;100343.41;87080;269;138434;-66
2024/02/24 00:18:33;;;;;;;15.10;12.30;;;;;;;7.35;100.00;100339.72;87091;270;22523;-67
2024/02/24 00:20:35;;;;;;;14.50;12.50;;;;;;;7.37;100.00;100340.26;87219;268;137136;-70
2024/02/24 00:22:37;;;;;;;15.50;12.00;;;;;;;7.38;100.00;100343.44;87104;260;22589;-68
2024/02/24 00:24:39;;;;;;;14.40;11.60;;;;;;;7.38;100.00;100344.13;89132;272;138615;-65
2024/02/24 00:26:41;;;;;;;16.30;12.90;;;;;;;7.37;100.00;100344.56;87299;275;24164;-66
2024/02/24 00:28:43;;;;;;;17.50;12.60;;;;;;;7.38;100.00;100344.20;87246;260;138826;-66
2024/02/24 00:30:44;;;;;;;16.60;12.60;;;;;;;7.37;100.00;100341.64;87328;268;22573;-70
2024/02/24 00:32:46;;;;;;;16.10;12.00;;;;;;;7.34;100.00;100342.29;87128;264;138301;-73
2024/02/24 00:34:48;;;;;;;14.70;11.90;;;;;;;7.34;100.00;100347.91;87277;268;25126;-66
2024/02/24 00:36:50;;;;;;;13.40;11.10;;;;;;;7.34;100.00;100350.20;87141;269;137601;-67
2024/02/24 00:38:52;;;;;;;15.70;11.20;;;;;;;7.35;100.00;100350.17;87131;268;26495;-66
2024/02/24 00:40:54;;;;;;;15.80;11.70;;;;;;;7.34;100.00;100347.02;87122;268;138265;-65
2024/02/24 00:42:56;;;;;;;13.30;10.80;;;;;;;7.35;100.00;100345.66;87144;268;22575;-66
2024/02/24 00:44:58;;;;;;;19.70;11.60;;;;;;;7.36;100.00;100342.90;87196;272;137576;-68
2024/02/24 00:47:00;;;;;;;14.90;10.50;;;;;;;7.32;100.00;100348.20;87281;270;23658;-68
2024/02/24 00:49:01;;;;;;;14.80;11.40;;;;;;;7.27;100.00;100335.31;87148;277;137317;-68
2024/02/24 00:51:03;;;;;;;15.60;12.10;;;;;;;7.26;100.00;100336.61;87285;273;25118;-67
2024/02/24 00:53:05;;;;;;;16.90;11.70;;;;;;;7.23;100.00;100333.04;87170;269;138088;-66
2024/02/24 00:55:08;;;;;;;20.30;12.40;;;;;;;7.22;100.00;100332.68;87235;265;25256;-66
2024/02/24 00:57:09;;;;;;;21.40;14.40;;;;;;;7.23;100.00;100332.41;87163;270;137394;-66
2024/02/24 00:59:11;;;;;;;19.50;13.90;;;;;;;7.24;100.00;100336.84;87193;270;22729;-68
2024/02/24 01:01:13;;;;;;;18.80;15.00;;;;;;;7.22;100.00;100327.90;87139;265;137789;-66
2024/02/24 01:03:15;;;;;;;21.80;13.10;;;;;;;7.19;100.00;100334.89;87253;269;22559;-67
2024/02/24 01:05:18;;;;;;;16.40;13.50;;;;;;;7.19;100.00;100332.40;87126;269;137136;-68
2024/02/24 01:07:21;;;;;;;17.80;14.20;;;;;;;7.16;100.00;100334.89;87334;269;22634;-68
2024/02/24 01:09:23;;;;;;;19.50;16.00;;;;;;;7.17;100.00;100329.45;87155;277;137305;-68
2024/02/24 01:11:25;;;;;;;21.60;14.40;;;;;;;7.18;100.00;100337.56;87285;273;24048;-66
2024/02/24 01:13:27;;;;;;;17.70;14.10;;;;;;;7.17;100.00;100331.61;87381;268;137269;-65
2024/02/24 01:15:28;;;;;;;17.90;15.20;;;;;;;7.19;100.00;100350.84;87273;268;25076;-73
2024/02/24 01:17:30;;;;;;;19.60;15.20;;;;;;;7.18;100.00;100348.64;87223;264;137928;-68
2024/02/24 01:19:33;;;;;;;19.50;14.90;;;;;;;7.15;100.00;100345.77;87250;272;25175;-66
2024/02/24 01:21:40;;;;;;;18.70;15.10;;;;;;;7.18;100.00;100344.87;87330;264;137247;-68
2024/02/24 01:23:42;;;;;;;18.90;14.20;;;;;;;7.20;100.00;100346.80;87271;272;22571;-65
2024/02/24 01:25:45;;;;;;;17.90;13.90;;;;;;;7.23;100.00;100343.17;87167;277;137074;-72
2024/02/24 01:27:47;;;;;;;17.20;14.00;;;;;;;7.21;100.00;100346.69;87439;271;23562;-72
2024/02/24 01:29:49;;;;;;;15.40;13.50;;;;;;;7.18;100.00;100349.14;87124;269;138230;-65
2024/02/24 01:31:51;;;;;;;19.10;14.60;;;;;;;7.16;100.00;100355.84;87207;270;22560;-67
2024/02/24 01:33:52;;;;;;;18.50;13.80;;;;;;;7.15;100.00;100347.08;87103;272;138475;-67
2024/02/24 01:35:55;;;;;;;20.70;14.80;;;;;;;7.16;100.00;100352.30;87324;264;24263;-67
2024/02/24 01:37:57;;;;;;;19.90;14.70;;;;;;;7.15;100.00;100354.20;87159;268;137202;-67
2024/02/24 01:39:59;;;;;;;18.40;14.80;;;;;;;7.14;100.00;100363.05;87430;264;25092;-68
2024/02/24 01:42:02;;;;;;;18.30;13.70;;;;;;;7.12;100.00;100354.88;87299;269;137550;-69
2024/02/24 01:44:04;;;;;;;20.70;14.70;;;;;;;7.11;100.00;100360.02;87161;273;137543;-67
2024/02/24 01:46:08;;;;;;;20.90;16.60;;;;;;;7.12;100.00;100364.77;87270;272;22919;-67
2024/02/24 01:48:09;;;;;;;21.90;15.10;;;;;;;7.11;100.00;100354.35;87242;271;137553;-68
2024/02/24 01:50:12;;;;;;;20.10;15.40;;;;;;;7.10;100.00;100357.75;87226;277;22552;-68
2024/02/24 01:52:14;;;;;;;21.10;15.30;;;;;;;7.11;100.00;100349.73;87167;273;138832;-65
2024/02/24 01:54:18;;;;;;;20.30;15.10;;;;;;;7.10;100.00;100353.17;87251;273;22645;-69
2024/02/24 01:56:23;;;;;;;21.00;15.40;;;;;;;7.09;100.00;100360.30;87089;272;137387;-68
2024/02/24 01:58:28;;;;;;;22.40;15.80;;;;;;;7.11;100.00;100351.33;87482;277;25227;-67
2024/02/24 02:00:31;;;;;;;16.40;14.40;;;;;;;7.09;100.00;100355.27;87086;273;137212;-66
2024/02/24 02:02:33;;;;;;;17.20;14.20;;;;;;;7.10;100.00;100353.59;87193;274;24016;-66
2024/02/24 02:04:35;;;;;;;22.30;16.40;;;;;;;7.08;100.00;100354.23;87123;270;137262;-68
2024/02/24 02:06:37;;;;;;;20.90;16.80;;;;;;;7.04;100.00;100347.77;87193;265;23925;-68
2024/02/24 02:08:39;;;;;;;22.20;16.50;;;;;;;7.04;100.00;100348.67;87115;270;138809;-70
2024/02/24 02:10:46;;;;;;;20.40;15.80;;;;;;;7.03;100.00;100349.30;87205;265;24276;-66
2024/02/24 02:12:47;;;;;;;21.70;16.60;;;;;;;7.07;100.00;100349.27;87204;277;137411;-67
2024/02/24 02:14:51;;;;;;;23.20;16.40;;;;;;;7.07;100.00;100351.53;87295;269;22604;-69
2024/02/24 02:16:53;;;;;;;23.60;16.40;;;;;;;7.05;100.00;100354.64;87213;273;137474;-68
2024/02/24 02:18:55;;;;;;;22.50;16.30;;;;;;;7.04;100.00;100351.85;87674;269;25259;-67
2024/02/24 02:20:59;;;;;;;19.90;15.30;;;;;;;7.08;100.00;100343.70;87107;269;137221;-73
2024/02/24 02:23:01;;;;;;;20.70;15.30;;;;;;;7.09;100.00;100341.59;87341;270;23997;-67
2024/02/24 02:25:04;;;;;;;22.10;15.60;;;;;;;7.10;100.00;100360.30;87106;269;138378;-67
2024/02/24 02:27:08;;;;;;;21.10;16.00;;;;;;;7.08;100.00;100355.20;87216;269;25230;-72
2024/02/24 02:29:10;;;;;;;22.20;17.00;;;;;;;7.11;100.00;100351.99;87116;269;137329;-68
2024/02/24 02:31:11;;;;;;;17.90;15.00;;;;;;;7.14;100.00;100364.89;87203;273;22581;-67
2024/02/24 02:33:13;;;;;;;18.20;15.50;;;;;;;7.13;100.00;100366.64;87112;273;137440;-69
2024/02/24 02:35:15;;;;;;;18.00;14.10;;;;;;;7.14;100.00;100358.77;87218;273;25105;-72
2024/02/24 02:37:17;;;;;;;19.40;14.10;;;;;;;7.12;100.00;100349.77;87245;268;137983;-66
2024/02/24 02:39:19;;;;;;;18.10;14.90;;;;;;;7.10;100.00;100353.52;87201;274;22692;-67
2024/02/24 02:41:21;;;;;;;18.40;14.30;;;;;;;7.12;100.00;100359.64;87056;277;137326;-70
2024/02/24 02:43:23;;;;;;;19.70;13.90;;;;;;;7.09;100.00;100369.19;87141;269;22558;-67
2024/02/24 02:45:25;;;;;;;20.20;14.30;;;;;;;7.07;100.00;100361.59;87062;266;137754;-70
2024/02/24 02:47:27;;;;;;;19.60;14.40;;;;;;;7.06;100.00;100375.19;87789;264;25182;-69
2024/02/24 02:49:29;;;;;;;15.80;13.60;;;;;;;7.06;100.00;100375.17;87049;273;137252;-69
2024/02/24 02:51:32;;;;;;;23.10;15.10;;;;;;;7.06;100.00;100370.21;87350;271;25182;-68
2024/02/24 02:53:33;;;;;;;20.30;15.90;;;;;;;7.06;100.00;100377.86;87061;262;137432;-68
2024/02/24 02:55:35;;;;;;;22.00;16.10;;;;;;;7.09;100.00;100378.23;87190;262;24151;-67
2024/02/24 02:57:38;;;;;;;21.60;15.70;;;;;;;7.10;100.00;100387.71;87056;277;138458;-66
2024/02/24 02:59:39;;;;;;;18.60;14.20;;;;;;;7.09;100.00;100381.80;87201;265;22536;-68
2024/02/24 03:01:51;;;;;;;20.20;16.40;;;;;;;7.09;100.00;100379.65;87115;270;137650;-67
2024/02/24 03:03:53;;;;;;;19.10;14.30;;;;;;;7.09;100.00;100390.62;87441;269;22595;-65
2024/02/24 03:05:55;;;;;;;19.00;14.80;;;;;;;7.09;100.00;100390.23;87080;270;137072;-66
2024/02/24 03:07:57;;;;;;;29.50;18.10;;;;;;;7.08;100.00;100392.13;87135;273;22778;-67
2024/02/24 03:09:58;;;;;;;22.00;15.90;;;;;;;7.05;100.00;100390.36;87083;265;137365;-66
2024/02/24 03:12:00;;;;;;;22.20;17.00;;;;;;;7.02;100.00;100398.56;87183;273;25111;-71
2024/02/24 03:14:03;;;;;;;21.30;17.00;;;;;;;7.00;100.00;100390.77;87161;273;22540;-70
2024/02/24 03:18:42;;;;;;;24.10;17.60;;;;;;;6.83;100.00;100384.89;85082;304;603887;-69
2024/02/24 03:20:43;;;;;;;31.50;18.90;;;;;;;6.73;100.00;100381.86;86241;284;135900;-67
2024/02/24 03:22:45;;;;;;;25.50;18.10;;;;;;;6.73;100.00;100387.70;86136;291;22664;-70
2024/02/24 03:24:47;;;;;;;23.90;16.90;;;;;;;6.68;100.00;100385.67;85989;291;137861;-69
2024/02/24 03:26:49;;;;;;;26.00;17.50;;;;;;;6.69;100.00;100392.48;85986;291;22580;-68
2024/02/24 03:28:51;;;;;;;22.60;17.40;;;;;;;6.70;100.00;100393.08;85909;291;136581;-68
2024/02/24 03:30:53;;;;;;;26.00;19.20;;;;;;;6.74;100.00;100381.20;86129;291;24132;-65
2024/02/24 03:32:55;;;;;;;24.80;18.00;;;;;;;6.78;100.00;100380.27;85543;289;775147;-67
2024/02/24 03:34:57;;;;;;;31.10;19.20;;;;;;;6.77;100.00;100378.19;86284;285;22584;-71
2024/02/24 03:36:59;;;;;;;22.40;16.20;;;;;;;6.74;100.00;100388.48;86128;285;136471;-67
2024/02/24 03:39:00;;;;;;;23.40;17.80;;;;;;;6.75;100.00;100388.13;86835;270;25182;-72
2024/02/24 03:41:02;;;;;;;23.40;16.90;;;;;;;6.74;100.00;100383.98;86670;270;137453;-68
2024/02/24 03:43:04;;;;;;;22.40;18.70;;;;;;;6.76;100.00;100387.02;86689;282;22582;-67
2024/02/24 03:45:06;;;;;;;23.30;18.30;;;;;;;6.75;100.00;100381.26;86637;271;137008;-68
2024/02/24 03:47:08;;;;;;;22.40;16.40;;;;;;;6.78;100.00;100385.04;86865;275;22597;-68
2024/02/24 03:49:10;;;;;;;25.80;16.10;;;;;;;6.79;100.00;100391.44;86693;275;137022;-66
2024/02/24 03:51:12;;;;;;;24.80;17.40;;;;;;;6.79;100.00;100387.56;86826;271;25259;-71
2024/02/24 03:53:14;;;;;;;21.10;16.30;;;;;;;6.79;100.00;100395.52;86656;280;137267;-67
2024/02/24 03:55:16;;;;;;;22.60;16.50;;;;;;;6.78;100.00;100383.75;86888;275;22561;-68
2024/02/24 03:57:18;;;;;;;19.90;14.90;;;;;;;6.81;100.00;100395.25;86728;271;136752;-70
2024/02/24 03:59:19;;;;;;;19.80;16.60;;;;;;;6.83;100.00;100401.73;86804;270;22824;-66
2024/02/24 04:01:21;;;;;;;24.90;17.40;;;;;;;6.87;100.00;100408.69;86700;276;136646;-66
2024/02/24 04:03:23;;;;;;;24.40;18.20;;;;;;;6.82;100.00;100416.63;86812;282;25092;-67
2024/02/24 04:05:25;;;;;;;20.70;16.00;;;;;;;6.76;100.00;100402.90;86629;279;136515;-72
2024/02/24 04:07:27;;;;;;;24.70;16.80;;;;;;;6.73;100.00;100405.83;86798;275;24068;-67
2024/02/24 04:09:28;;;;;;;25.40;15.80;;;;;;;6.72;100.00;100407.21;86962;267;137047;-66
2024/02/24 04:11:30;;;;;;;24.30;17.00;;;;;;;6.71;100.00;100409.96;87152;274;22571;-65
2024/02/24 04:13:32;;;;;;;21.10;15.70;;;;;;;6.70;100.00;100404.46;87057;277;137194;-67
2024/02/24 04:15:34;;;;;;;24.20;14.90;;;;;;;6.70;100.00;100406.33;87148;274;24167;-64
2024/02/24 04:17:36;;;;;;;23.50;14.70;;;;;;;6.69;100.00;100406.80;86824;268;136828;-69
2024/02/24 04:19:38;;;;;;;23.50;17.10;;;;;;;6.67;100.00;100414.23;87052;267;22536;-67
2024/02/24 04:21:40;;;;;;;24.40;14.90;;;;;;;6.69;100.00;100406.67;87044;271;137065;-69
2024/02/24 04:23:41;;;;;;;21.10;13.80;;;;;;;6.67;100.00;100411.45;87105;272;22571;-65
2024/02/24 04:25:43;;;;;;;21.60;15.80;;;;;;;6.60;100.00;100409.66;87089;270;137031;-67
2024/02/24 04:27:45;;;;;;;19.00;14.70;;;;;;;6.65;100.00;100412.03;87192;266;22559;-65
2024/02/24 04:29:47;;;;;;;20.10;14.60;;;;;;;6.65;100.00;100411.70;87101;271;138082;-67
2024/02/24 04:31:49;;;;;;;25.00;15.30;;;;;;;6.65;100.00;100406.00;87235;263;22577;-66
2024/02/24 04:33:51;;;;;;;21.60;16.00;;;;;;;6.64;100.00;100400.94;87042;271;136803;-69
2024/02/24 04:35:53;;;;;;;25.50;15.60;;;;;;;6.64;100.00;100416.77;87218;275;24273;-72
2024/02/24 04:37:56;;;;;;;22.90;15.30;;;;;;;6.59;100.00;100408.56;87106;271;136994;-67
2024/02/24 04:39:57;;;;;;;23.90;16.60;;;;;;;6.63;100.00;100408.81;87146;267;25255;-65
2024/02/24 04:41:59;;;;;;;21.50;15.30;;;;;;;6.63;100.00;100409.86;87099;267;136953;-67
2024/02/24 04:44:02;;;;;;;21.00;16.20;;;;;;;6.64;100.00;100414.25;87279;278;26070;-67
2024/02/24 04:46:05;;;;;;;20.60;15.60;;;;;;;6.61;100.00;100412.64;87223;274;22659;-67
2024/02/24 04:48:10;;;;;;;20.60;15.50;;;;;;;6.59;100.00;100418.11;87082;266;138652;-69
2024/02/24 04:50:12;;;;;;;35.60;17.10;;;;;;;6.58;100.00;100411.66;87033;268;25261;-68
2024/02/24 04:52:14;;;;;;;22.90;17.40;;;;;;;6.59;100.00;100420.72;87092;269;137515;-67
2024/02/24 04:54:16;;;;;;;21.70;15.80;;;;;;;6.62;100.00;100413.95;87265;271;24278;-67
2024/02/24 04:56:18;;;;;;;20.30;15.00;;;;;;;6.65;100.00;100421.41;87198;271;137173;-68
2024/02/24 04:58:20;;;;;;;19.40;13.80;;;;;;;6.65;100.00;100415.38;87209;269;22581;-74
2024/02/24 05:00:22;;;;;;;19.40;14.60;;;;;;;6.68;100.00;100420.48;87079;270;136976;-73
2024/02/24 05:02:23;;;;;;;21.60;14.90;;;;;;;6.68;100.00;100430.42;87146;267;24199;-71
2024/02/24 05:04:25;;;;;;;24.70;17.40;;;;;;;6.62;100.00;100427.71;87198;265;136118;-69
2024/02/24 05:06:28;;;;;;;18.80;14.40;;;;;;;6.60;100.00;100435.31;87201;270;24585;-67
2024/02/24 05:08:30;;;;;;;22.10;16.00;;;;;;;6.58;100.00;100433.23;87116;269;136784;-70
2024/02/24 05:10:32;;;;;;;19.90;14.70;;;;;;;6.60;100.00;100431.80;87189;270;25230;-66
2024/02/24 05:12:35;;;;;;;21.80;14.40;;;;;;;6.62;100.00;100436.45;87103;266;136640;-69
2024/02/24 05:14:37;;;;;;;22.70;15.40;;;;;;;6.60;100.00;100440.38;87202;266;25111;-68
2024/02/24 05:16:40;;;;;;;21.60;15.80;;;;;;;6.60;100.00;100441.87;87144;269;136763;-70
2024/02/24 05:18:42;;;;;;;23.80;17.80;;;;;;;6.61;100.00;100443.90;87171;267;24062;-69
2024/02/24 05:20:44;;;;;;;18.40;15.10;;;;;;;6.60;100.00;100446.41;87028;270;137006;-67
2024/02/24 05:22:46;;;;;;;23.30;16.10;;;;;;;6.56;100.00;100450.16;87192;269;24568;-68
2024/02/24 05:24:47;;;;;;;21.60;15.90;;;;;;;6.53;100.00;100450.15;87134;269;136974;-65
2024/02/24 05:26:50;;;;;;;24.40;16.20;;;;;;;6.55;100.00;100453.67;87230;269;23998;-70
2024/02/24 05:28:52;;;;;;;24.30;14.40;;;;;;;6.55;100.00;100450.13;87085;267;137002;-68
2024/02/24 05:30:54;;;;;;;26.00;15.40;;;;;;;6.55;100.00;100451.71;87207;267;22590;-68
2024/02/24 05:32:55;;;;;;;19.60;15.60;;;;;;;6.53;100.00;100457.17;87067;278;136918;-65
2024/02/24 05:34:59;;;;;;;20.50;16.30;;;;;;;6.54;100.00;100464.16;87209;267;23841;-66
2024/02/24 05:37:01;;;;;;;26.80;17.20;;;;;;;6.53;100.00;100457.23;86978;269;137116;-70
2024/02/24 05:39:06;;;;;;;25.50;16.00;;;;;;;6.53;100.00;100459.36;86985;267;25259;-66
2024/02/24 05:41:08;;;;;;;21.10;15.30;;;;;;;6.51;100.00;100474.91;87027;266;137122;-68
2024/02/24 05:43:10;;;;;;;18.90;14.40;;;;;;;6.51;100.00;100468.20;87035;273;22555;-66
2024/02/24 05:45:11;;;;;;;25.50;15.20;;;;;;;6.55;100.00;100467.09;87008;271;137481;-69
2024/02/24 05:47:13;;;;;;;21.10;16.70;;;;;;;6.56;100.00;100474.07;87180;271;24405;-70
2024/02/24 05:49:15;;;;;;;21.20;15.50;;;;;;;6.55;100.00;100490.16;87141;275;137331;-68
2024/02/24 05:51:21;;;;;;;21.20;15.90;;;;;;;6.56;100.00;100487.08;87138;267;22578;-70
2024/02/24 05:53:23;;;;;;;18.60;13.30;;;;;;;6.59;100.00;100484.45;86981;269;136403;-73
2024/02/24 05:55:25;;;;;;;19.40;14.80;;;;;;;6.61;100.00;100487.80;87052;271;24065;-66
2024/02/24 05:57:28;;;;;;;18.70;15.10;;;;;;;6.63;100.00;100481.92;87088;264;137248;-66
2024/02/24 05:59:30;;;;;;;23.20;16.60;;;;;;;6.61;100.00;100485.70;86976;276;22703;-76
2024/02/24 06:01:31;;;;;;;23.50;15.30;;;;;;;6.59;100.00;100485.15;86892;280;136848;-74
2024/02/24 06:03:34;;;;;;;22.50;14.80;;;;;;;6.61;100.00;100486.27;87159;278;24141;-67
2024/02/24 06:05:36;;;;;;;23.60;15.20;;;;;;;6.61;100.00;100495.22;86959;268;137254;-67
2024/02/24 06:07:38;;;;;;;23.20;15.30;;;;;;;6.61;100.00;100502.83;87008;272;22541;-67
2024/02/24 06:09:40;;;;;;;20.40;13.70;;;;;;;6.60;100.00;100501.48;87007;272;137236;-68
2024/02/24 06:11:42;;;;;;;17.70;13.10;;;;;;;6.64;100.00;100500.20;87144;275;22658;-65
2024/02/24 06:13:46;;;;;;;19.20;12.50;;;;;;;6.61;100.00;100505.64;86892;267;137186;-64
2024/02/24 06:15:48;;;;;;;15.80;12.80;;;;;;;6.60;100.00;100491.93;87215;272;22705;-67
2024/02/24 06:17:50;;;;;;;16.40;13.70;;;;;;;6.61;100.00;100494.35;86931;280;137764;-69
2024/02/24 06:19:52;;;;;;;15.50;12.10;;;;;;;6.62;100.00;100504.69;87122;279;25166;-69
2024/02/24 06:21:54;;;;;;;16.60;12.40;;;;;;;6.66;100.00;100504.45;86932;275;136048;-67
2024/02/24 06:23:56;;;;;;;19.50;13.90;;;;;;;6.67;100.00;100503.65;87107;267;22574;-71
2024/02/24 06:25:58;;;;;;;21.40;11.90;;;;;;;6.70;100.00;100497.27;87035;271;138062;-75
2024/02/24 06:28:00;;;;;;;14.20;10.70;;;;;;;6.70;100.00;100508.42;87168;271;25197;-66
2024/02/24 06:30:02;;;;;;;15.50;11.40;;;;;;;6.74;100.00;100512.46;87108;273;136992;-65
2024/02/24 06:32:05;;;;;;;18.80;11.40;;;;;;;6.76;100.00;100505.88;87105;264;137348;-66
2024/02/24 06:34:06;;;;;;;18.70;13.00;;;;;;;6.71;100.00;100498.94;87560;275;22556;-76
2024/02/24 06:36:09;;;;;;;16.90;12.40;;;;;;;6.69;100.00;100509.59;86975;275;137513;-66
2024/02/24 06:38:11;;;;;;;17.40;12.40;;;;;;;6.72;100.00;100500.97;87053;280;24027;-65
2024/02/24 06:40:13;;;;;;;20.20;13.70;;;;;;;6.78;100.00;100499.98;87117;271;137447;-68
2024/02/24 06:42:26;;;;;;;20.80;14.10;;;;;;;6.82;100.00;100500.52;87159;272;22555;-69
2024/02/24 06:44:28;;;;;;;18.90;13.80;;;;;;;6.82;100.00;100497.44;87185;271;137307;-68
2024/02/24 06:46:30;;;;;;;19.20;14.00;;;;;;;6.86;100.00;100493.20;87155;268;24872;-67
2024/02/24 06:48:31;;;;;;;19.00;14.10;;;;;;;6.88;100.00;100497.11;87024;268;138371;-70
2024/02/24 06:50:33;;;;;;;19.70;14.40;;;;;;;6.89;100.00;100503.12;87090;275;22561;-66
2024/02/24 06:52:36;;;;;;;20.90;13.70;;;;;;;6.85;100.00;100502.64;86931;275;138469;-66
2024/02/24 06:54:40;;;;;;;19.10;13.80;;;;;;;6.89;100.00;100506.95;86938;273;22622;-67
2024/02/24 06:56:42;;;;;;;24.10;15.40;;;;;;;6.93;100.00;100506.39;86890;278;136941;-66
2024/02/24 06:58:47;;;;;;;16.70;13.00;;;;;;;6.97;100.00;100498.07;87077;271;23077;-72
2024/02/24 07:00:48;;;;;;;16.50;13.00;;;;;;;7.00;100.00;100492.23;86796;280;137532;-66
2024/02/24 07:02:52;;;;;;;17.50;14.60;;;;;;;7.03;100.00;100496.54;87124;279;25112;-66
2024/02/24 07:04:54;;;;;;;17.30;13.50;;;;;;;7.00;100.00;100492.20;87129;271;136975;-65
2024/02/24 07:06:56;;;;;;;18.90;13.50;;;;;;;6.93;100.00;100493.20;87052;270;22792;-66
2024/02/24 07:08:58;;;;;;;19.70;14.30;;;;;;;6.88;100.00;100504.14;86974;271;136127;-67
2024/02/24 07:11:00;;;;;;;20.80;13.60;;;;;;;6.91;100.00;100502.39;87168;278;22558;-71
2024/02/24 07:13:01;;;;;;;19.80;14.00;;;;;;;6.97;100.00;100497.34;86978;278;137321;-65
2024/02/24 07:15:04;;;;;;;18.00;14.60;;;;;;;7.02;100.00;100498.61;87128;267;22609;-66
2024/02/24 07:17:06;;;;;;;18.60;12.30;;;;;;;7.05;100.00;100491.17;86868;272;137475;-69
2024/02/24 07:19:08;;;;;;;16.20;11.10;;;;;;;7.10;100.00;100490.09;87250;275;24619;-71
2024/02/24 07:21:10;;;;;;;13.70;11.40;;;;;;;7.12;100.00;100497.38;86818;280;137699;-68
2024/02/24 07:23:12;;;;;;;16.60;11.60;;;;;;;7.12;100.00;100487.77;87315;271;22552;-69
2024/02/24 07:25:15;;;;;;;14.70;11.50;;;;;;;7.16;100.00;100495.16;87091;271;138269;-69
2024/02/24 07:27:17;;;;;;;20.50;12.40;;;;;;;7.17;100.00;100497.52;87200;271;22575;-70
2024/02/24 07:29:19;;;;;;;16.30;11.70;;;;;;;7.19;100.00;100485.63;87379;271;137105;-69
2024/02/24 07:31:21;;;;;;;16.40;12.20;;;;;;;7.24;100.00;100481.61;87114;264;22589;-69
2024/02/24 07:33:22;;;;;;;17.50;13.40;;;;;;;7.28;100.00;100487.90;86963;271;138132;-67
2024/02/24 07:35:24;;;;;;;14.10;10.20;;;;;;;7.30;100.00;100487.64;87287;278;22579;-65
2024/02/24 07:37:28;;;;;;;19.60;12.00;;;;;;;7.30;100.00;100483.58;86869;269;136668;-73
2024/02/24 07:39:30;;;;;;;14.30;10.60;;;;;;;7.30;100.00;100477.08;87115;271;22566;-73
2024/02/24 07:41:32;;;;;;;14.20;10.80;;;;;;;7.31;100.00;100475.75;87026;267;137068;-70
2024/02/24 07:43:34;;;;;;;14.40;9.70;;;;;;;7.34;100.00;100495.52;87016;264;22590;-68
2024/02/24 07:45:35;;;;;;;12.80;9.40;;;;;;;7.39;100.00;100483.30;87023;271;137344;-67
2024/02/24 07:47:37;;;;;;;12.70;10.10;;;;;;;7.42;100.00;100484.81;87126;271;22580;-67
2024/02/24 07:49:39;;;;;;;14.60;11.10;;;;;;;7.45;100.00;100485.71;87156;271;137285;-66
2024/02/24 07:51:43;;;;;;;17.60;10.90;;;;;;;7.48;100.00;100480.48;86982;273;22565;-65
2024/02/24 07:53:45;;;;;;;13.10;10.60;;;;;;;7.47;100.00;100473.15;87382;275;136618;-72
2024/02/24 07:55:47;;;;;;;17.60;13.30;;;;;;;7.44;100.00;100484.95;87118;271;23756;-72
2024/02/24 07:57:49;;;;;;;13.70;10.90;;;;;;;7.40;100.00;100477.35;87013;268;138601;-68
2024/02/24 07:59:51;;;;;;;12.50;10.60;;;;;;;7.45;100.00;100474.94;87130;272;25137;-67
2024/02/24 08:01:54;;;;;;;12.70;10.60;;;;;;;7.49;100.00;100479.48;86974;271;137335;-67
2024/02/24 08:03:55;;;;;;;12.40;11.00;;;;;;;7.50;100.00;100469.23;86945;273;22563;-70
2024/02/24 08:05:57;;;;;;;15.10;12.40;;;;;;;7.52;100.00;100463.53;86963;273;138112;-68
2024/02/24 08:08:01;;;;;;;13.50;11.00;;;;;;;7.56;100.00;100462.98;87143;279;22555;-66
2024/02/24 08:10:03;;;;;;;15.20;11.40;;;;;;;7.54;100.00;100460.22;87313;271;22526;-68
2024/02/24 08:12:05;;;;;;;15.80;12.20;;;;;;;7.57;100.00;100463.50;87185;270;138090;-68
2024/02/24 08:14:08;;;;;;;12.00;9.90;;;;;;;7.63;100.00;100470.87;87302;269;25079;-74
2024/02/24 08:16:11;;;;;;;15.20;10.30;;;;;;;7.70;100.00;100454.20;87197;278;137580;-67
2024/02/24 08:18:13;;;;;;;12.70;9.80;;;;;;;7.70;100.00;100466.80;87327;271;23734;-70
2024/02/24 08:20:15;;;;;;;12.20;10.40;;;;;;;7.72;100.00;100464.39;87425;270;136433;-68
2024/02/24 08:22:17;;;;;;;16.10;10.40;;;;;;;7.71;100.00;100465.23;87200;271;22990;-69
2024/02/24 08:24:19;;;;;;;12.60;9.30;;;;;;;7.70;100.00;100461.28;87197;269;136778;-72
2024/02/24 08:26:21;;;;;;;11.30;9.70;;;;;;;7.71;100.00;100462.61;87214;278;24059;-68
2024/02/24 08:28:23;;;;;;;13.70;9.90;;;;;;;7.74;100.00;100451.62;87072;271;137304;-67
2024/02/24 08:30:24;;;;;;;12.30;10.40;;;;;;;7.81;100.00;100452.52;86991;270;23143;-68
2024/02/24 08:32:27;;;;;;;14.90;9.70;;;;;;;7.85;100.00;100466.34;87113;267;138782;-67
2024/02/24 08:34:29;;;;;;;14.00;10.60;;;;;;;7.89;100.00;100464.75;87101;267;23887;-69
2024/02/24 08:36:31;;;;;;;14.30;9.30;;;;;;;7.89;100.00;100460.11;87033;274;137235;-68
2024/02/24 08:38:34;;;;;;;13.30;10.10;;;;;;;7.86;100.00;100456.33;87181;267;25188;-70
2024/02/24 08:40:39;;;;;;;11.70;8.90;;;;;;;7.86;100.00;100463.60;87151;263;136664;-67
2024/02/24 08:42:41;;;;;;;12.70;9.20;;;;;;;7.88;100.00;100465.21;87005;273;25338;-70
2024/02/24 08:44:43;;;;;;;11.10;8.50;;;;;;;7.92;100.00;100462.03;86997;279;137009;-72
2024/02/24 08:46:45;;;;;;;10.80;8.20;;;;;;;7.97;100.00;100467.87;87004;279;22554;-67
2024/02/24 08:48:47;;;;;;;15.60;9.80;;;;;;;8.04;100.00;100466.05;86936;278;137857;-68
2024/02/24 08:50:48;;;;;;;13.10;10.00;;;;;;;8.11;100.00;100470.75;86961;271;22554;-74
2024/02/24 08:52:50;;;;;;;11.20;8.10;;;;;;;8.17;100.00;100471.88;87098;269;138713;-69
2024/02/24 08:54:52;;;;;;;12.70;10.00;;;;;;;8.21;100.00;100470.37;87140;270;25112;-68
2024/02/24 08:56:54;;;;;;;12.60;9.60;;;;;;;8.23;100.00;100476.17;87114;274;137162;-67
2024/02/24 08:58:56;;;;;;;12.70;9.80;;;;;;;8.22;100.00;100469.77;87010;279;23965;-70
2024/02/24 09:00:58;;;;;;;13.00;9.20;;;;;;;8.22;100.00;100458.83;87078;278;136366;-74
2024/02/24 09:03:00;;;;;;;10.10;6.60;;;;;;;8.25;100.00;100468.17;87606;275;22748;-67
2024/02/24 09:05:03;;;;;;;8.40;6.90;;;;;;;8.27;100.00;100482.14;87079;267;137277;-68
2024/02/24 09:07:05;;;;;;;8.20;6.80;;;;;;;8.28;100.00;100478.82;87147;273;22557;-72
2024/02/24 09:09:06;;;;;;;11.40;6.90;;;;;;;8.33;100.00;100475.33;86913;271;137121;-67
2024/02/24 09:11:08;;;;;;;11.00;8.10;;;;;;;8.37;100.00;100485.14;87019;271;23739;-68
2024/02/24 09:13:10;;;;;;;13.60;10.60;;;;;;;8.38;100.00;100478.96;87281;272;138049;-69
2024/02/24 09:15:12;;;;;;;12.60;9.90;;;;;;;8.42;100.00;100472.95;87063;279;25335;-67
2024/02/24 09:17:14;;;;;;;12.00;10.20;;;;;;;8.42;100.00;100484.76;87029;275;136739;-68
2024/02/24 09:19:17;;;;;;;13.90;10.90;;;;;;;8.41;100.00;100486.67;87166;267;22574;-67
2024/02/24 09:21:19;;;;;;;11.20;8.80;;;;;;;8.37;100.00;100483.29;87199;271;136917;-74